createdAt,value
2022-08-03T00:03:58.584Z,5.20
2022-08-03T00:09:07.462Z,6.50
2022-08-03T00:14:15.357Z,5.20
2022-08-03T00:19:23.390Z,7.00
2022-08-03T00:24:31.586Z,5.30
2022-08-03T00:29:59.400Z,4.00
2022-08-03T00:35:14.775Z,3.80
2022-08-03T00:40:38.948Z,4.60
2022-08-03T00:45:47.351Z,4.90
2022-08-03T00:50:58.600Z,4.30
2022-08-03T00:56:07.092Z,4.90
2022-08-03T01:01:15.797Z,4.20
2022-08-03T01:06:34.971Z,6.10
2022-08-03T01:11:59.882Z,6.80
2022-08-03T01:17:20.396Z,3.80
2022-08-03T01:23:07.315Z,6.20
2022-08-03T01:28:35.926Z,5.20
2022-08-03T01:33:49.225Z,4.10
2022-08-03T01:39:00.888Z,5.20
2022-08-03T01:44:30.047Z,3.50
2022-08-03T01:49:41.996Z,4.90
2022-08-03T01:54:54.087Z,5.10
2022-08-03T02:05:21.701Z,3.40
2022-08-03T02:10:35.378Z,3.90
2022-08-03T02:15:46.293Z,4.70
2022-08-03T02:20:56.376Z,5.20
2022-08-03T02:26:09.408Z,4.90
2022-08-03T02:31:21.623Z,4.60
2022-08-03T02:36:33.822Z,4.60
2022-08-03T02:41:45.094Z,3.70
2022-08-03T02:46:58.820Z,5.20
2022-08-03T02:52:13.194Z,4.60
2022-08-03T02:57:27.117Z,4.90
2022-08-03T03:02:36.745Z,3.30
2022-08-03T03:07:51.873Z,5.20
2022-08-03T03:13:03.354Z,4.10
2022-08-03T03:18:12.480Z,5.40
2022-08-03T03:23:22.695Z,4.90
2022-08-03T03:28:32.369Z,5.70
2022-08-03T03:33:41.298Z,7.10
2022-08-03T03:38:49.306Z,6.10
2022-08-03T03:43:57.483Z,4.80
2022-08-03T03:49:07.561Z,5.50
2022-08-03T03:54:15.590Z,5.10
2022-08-03T03:59:24.031Z,6.60
2022-08-03T04:04:51.777Z,3.70
2022-08-03T04:10:17.916Z,6.80
2022-08-03T04:15:27.714Z,7.40
2022-08-03T04:20:37.745Z,4.50
2022-08-03T04:25:47.831Z,4.80
2022-08-03T04:30:58.720Z,4.70
2022-08-03T04:36:10.945Z,6.10
2022-08-03T04:41:20.131Z,4.40
2022-08-03T04:46:31.227Z,4.50
2022-08-03T04:51:43.114Z,3.80
2022-08-03T04:56:51.239Z,3.60
2022-08-03T05:01:59.608Z,3.30
2022-08-03T05:07:11.630Z,4.90
2022-08-03T05:12:20.712Z,6.10
2022-08-03T05:17:29.293Z,3.40
2022-08-03T05:22:37.545Z,3.70
2022-08-03T05:27:45.813Z,4.80
2022-08-03T05:32:54.047Z,4.70
2022-08-03T05:38:02.574Z,4.20
2022-08-03T05:43:11.785Z,4.70
2022-08-03T05:48:20.803Z,3.60
2022-08-03T05:53:29.284Z,3.70
2022-08-03T05:58:38.095Z,7.70
2022-08-03T06:03:46.394Z,3.70
2022-08-03T06:08:54.804Z,4.30
2022-08-03T06:14:02.928Z,5.90
2022-08-03T06:19:10.850Z,3.90
2022-08-03T06:24:18.887Z,4.20
2022-08-03T06:29:34.100Z,5.40
2022-08-03T06:34:42.112Z,5.00
2022-08-03T06:39:50.124Z,3.30
2022-08-03T06:44:59.012Z,6.00
2022-08-03T06:50:16.218Z,6.00
2022-08-03T06:55:26.481Z,4.40
2022-08-03T07:00:34.815Z,4.40
2022-08-03T07:05:44.062Z,5.30
2022-08-03T07:10:51.989Z,4.00
2022-08-03T07:15:59.900Z,4.50
2022-08-03T07:21:11.298Z,4.60
2022-08-03T07:26:19.364Z,5.00
2022-08-03T07:31:27.437Z,4.40
2022-08-03T07:36:42.936Z,4.20
2022-08-03T07:41:52.104Z,5.40
2022-08-03T07:47:01.858Z,5.70
2022-08-03T07:57:37.114Z,4.80
2022-08-03T08:03:04.331Z,3.70
2022-08-03T08:08:13.023Z,4.50
2022-08-03T08:13:21.036Z,3.00
2022-08-03T08:18:31.163Z,3.30
2022-08-03T08:23:44.158Z,3.60
2022-08-03T08:28:55.991Z,2.00
2022-08-03T08:34:06.275Z,3.70
2022-08-03T08:39:14.558Z,4.30
2022-08-03T08:49:33.136Z,4.00
2022-08-03T08:54:45.031Z,3.20
2022-08-03T08:59:58.488Z,4.50
2022-08-03T09:05:07.838Z,3.30
2022-08-03T09:10:20.160Z,2.50
2022-08-03T09:15:31.707Z,2.90
2022-08-03T09:20:40.633Z,2.80
2022-08-03T09:25:48.932Z,4.40
2022-08-03T09:31:03.946Z,3.90
2022-08-03T09:36:12.763Z,2.50
2022-08-03T09:41:23.084Z,4.40
2022-08-03T09:46:32.471Z,2.30
2022-08-03T09:52:32.865Z,4.10
2022-08-03T09:57:11.131Z,2.10
2022-08-03T10:02:28.096Z,2.40
2022-08-03T10:07:46.430Z,2.40
2022-08-03T10:12:56.098Z,2.70
2022-08-03T10:18:04.841Z,1.40
2022-08-03T10:23:16.866Z,2.80
2022-08-03T10:28:26.782Z,3.60
2022-08-03T10:33:50.259Z,2.20
2022-08-03T10:39:02.419Z,1.80
2022-08-03T10:44:17.320Z,2.40
2022-08-03T10:49:33.820Z,4.70
2022-08-03T10:55:07.337Z,3.60
2022-08-03T11:00:17.678Z,2.10
2022-08-03T11:05:34.310Z,2.90
2022-08-03T11:10:45.102Z,1.30
2022-08-03T11:16:00.099Z,1.40
2022-08-03T11:21:12.975Z,2.80
2022-08-03T11:26:23.029Z,1.90
2022-08-03T11:31:53.273Z,2.30
2022-08-03T11:37:32.897Z,2.10
2022-08-03T11:47:58.975Z,2.00
2022-08-03T11:53:07.949Z,2.00
2022-08-03T11:59:16.885Z,4.70
2022-08-03T12:03:51.914Z,1.40
2022-08-03T12:08:59.977Z,1.80
2022-08-03T12:14:49.729Z,1.70
2022-08-03T12:19:47.282Z,2.30
2022-08-03T12:24:55.544Z,4.00
2022-08-03T12:30:05.062Z,3.30
2022-08-03T12:35:24.995Z,3.30
2022-08-03T12:40:33.998Z,2.60
2022-08-03T12:45:42.335Z,2.90
2022-08-03T12:50:53.575Z,2.00
2022-08-03T12:56:08.168Z,1.70
2022-08-03T13:01:17.390Z,1.50
2022-08-03T13:06:29.060Z,1.70
2022-08-03T13:11:57.532Z,1.90
2022-08-03T13:17:08.604Z,4.20
2022-08-03T13:22:18.256Z,1.90
2022-08-03T13:28:03.978Z,3.50
2022-08-03T13:32:56.040Z,2.00
2022-08-03T13:38:04.772Z,1.80
2022-08-03T13:43:14.323Z,3.20
2022-08-03T13:48:36.655Z,2.70
2022-08-03T13:53:47.691Z,1.30
2022-08-03T13:58:55.953Z,2.20
2022-08-03T14:04:04.737Z,2.20
2022-08-03T14:14:30.794Z,2.80
2022-08-03T14:19:52.926Z,1.20
2022-08-03T14:25:02.943Z,1.70
2022-08-03T14:30:14.068Z,2.90
2022-08-03T14:35:22.505Z,2.30
2022-08-03T14:40:30.880Z,1.40
2022-08-03T14:45:39.101Z,2.40
2022-08-03T14:50:51.322Z,2.90
2022-08-03T14:56:00.624Z,2.10
2022-08-03T15:02:03.313Z,2.50
2022-08-03T15:06:38.722Z,2.30
2022-08-03T15:11:47.638Z,4.30
2022-08-03T15:16:56.682Z,3.10
2022-08-03T15:22:03.980Z,1.60
2022-08-03T15:27:12.654Z,2.00
2022-08-03T15:32:20.928Z,2.00
2022-08-03T15:37:29.144Z,1.80
2022-08-03T15:42:38.093Z,2.40
2022-08-03T15:47:46.563Z,1.30
2022-08-03T15:52:55.156Z,2.30
2022-08-03T15:59:12.709Z,2.20
2022-08-03T16:03:34.840Z,1.90
2022-08-03T16:08:43.031Z,1.80
2022-08-03T16:14:11.941Z,1.10
2022-08-03T16:19:19.919Z,1.10
2022-08-03T16:24:28.429Z,2.60
2022-08-03T16:29:36.800Z,2.00
2022-08-03T16:34:46.110Z,2.00
2022-08-03T16:39:54.400Z,2.90
2022-08-03T16:45:02.746Z,1.30
2022-08-03T16:50:19.552Z,2.60
2022-08-03T16:55:48.884Z,2.10
2022-08-03T17:00:58.951Z,1.60
2022-08-03T17:06:09.434Z,2.00
2022-08-03T17:11:17.509Z,2.00
2022-08-03T17:16:26.087Z,2.10
2022-08-03T17:21:39.102Z,2.70
2022-08-03T17:26:53.143Z,2.40
2022-08-03T17:32:06.575Z,4.60
2022-08-03T17:37:49.875Z,6.30
2022-08-03T17:42:52.333Z,6.00
2022-08-03T17:48:01.320Z,7.40
2022-08-03T17:53:24.194Z,4.90
2022-08-03T17:58:56.733Z,6.20
2022-08-03T18:04:12.004Z,5.70
2022-08-03T18:10:03.614Z,2.70
2022-08-03T18:15:01.432Z,5.10
2022-08-03T18:20:34.603Z,4.80
2022-08-03T18:25:53.675Z,5.00
2022-08-03T18:31:08.020Z,5.90
2022-08-03T18:36:30.208Z,3.30
2022-08-03T18:41:44.576Z,9.70
2022-08-03T18:47:07.478Z,8.20
2022-08-03T18:52:37.843Z,9.60
2022-08-03T18:58:03.886Z,8.20
2022-08-03T19:03:20.344Z,5.70
2022-08-03T19:08:36.292Z,5.20
2022-08-03T19:13:51.926Z,4.10
2022-08-03T19:19:01.034Z,3.60
2022-08-03T19:24:11.433Z,7.80
2022-08-03T19:29:22.493Z,5.80
2022-08-03T19:34:33.506Z,4.60
2022-08-03T19:39:56.559Z,4.00
2022-08-03T19:45:13.866Z,3.90
2022-08-03T19:50:24.321Z,5.30
2022-08-03T19:55:34.559Z,4.90
2022-08-03T20:00:48.718Z,5.10
2022-08-03T20:05:57.499Z,4.30
2022-08-03T20:11:07.678Z,3.40
2022-08-03T20:16:16.095Z,3.40
2022-08-03T20:21:27.001Z,4.60
2022-08-03T20:26:36.049Z,4.10
2022-08-03T20:31:44.883Z,6.20
2022-08-03T20:36:53.839Z,4.50
2022-08-03T20:42:02.323Z,7.10
2022-08-03T20:47:18.241Z,6.30
2022-08-03T20:52:35.410Z,7.20
2022-08-03T20:57:59.454Z,5.60
2022-08-03T21:03:09.034Z,5.60
2022-08-03T21:08:20.887Z,4.50
2022-08-03T21:13:39.657Z,6.10
2022-08-03T21:18:51.838Z,5.50
2022-08-03T21:24:03.889Z,4.70
2022-08-03T21:29:14.506Z,6.90
2022-08-03T21:34:23.940Z,6.50
2022-08-03T21:39:33.798Z,4.80
2022-08-03T21:44:42.032Z,5.20
2022-08-03T21:50:06.570Z,6.50
2022-08-03T21:55:21.094Z,4.30
2022-08-03T22:00:29.403Z,5.10
2022-08-03T22:05:43.322Z,4.30
2022-08-03T22:10:54.747Z,4.30
2022-08-03T22:16:03.568Z,5.20
2022-08-03T22:21:15.023Z,4.20
2022-08-03T22:26:35.228Z,5.80
2022-08-03T22:37:09.193Z,5.20
2022-08-03T22:42:18.395Z,5.20
2022-08-03T22:47:26.855Z,4.30
2022-08-03T22:52:36.555Z,7.20
2022-08-03T22:57:45.255Z,5.20
2022-08-03T23:03:08.200Z,5.00
2022-08-03T23:08:20.373Z,5.20
2022-08-03T23:13:33.601Z,4.60
2022-08-03T23:18:44.234Z,4.40
2022-08-03T23:23:52.408Z,5.00
2022-08-03T23:29:03.600Z,4.40
2022-08-03T23:34:32.712Z,4.50
2022-08-03T23:39:41.967Z,4.60
2022-08-03T23:44:51.942Z,4.40
2022-08-03T23:49:59.874Z,4.50
2022-08-03T23:55:23.454Z,5.20
